Hit Tracker is now ESPN Home Run Tracker! Hit Tracker founder Greg Rybarczyk is now collaborating with the ESPN Stats & Information Group to continue tracking all MLB home runs, and helping baseball fans know "How Far It Really Went!™" Please credit any information on this site to ESPN Stats & Information Group. For more information and analysis on home runs, please contact founder Greg Rybarczyk. E-Mail ESPN Home Run Tracker
Main Page | Ballparks | Park Overlays | Glossary | Highlight Homers | Feedback | Bio | 3 Types of HR's | AAA Home Run Derby Last Updated: June 24, 2016, 10:56 pm PST
If you want to know "How Far It Really Went!", then you've come to the right place! Welcome to the ESPN Home Run Tracker, where you can find accurate, transparently verifiable distances for every home run hit in MLB games. Please also check out the ESPN MLB Scoreboard throughout the 2016 season! Contact us at grybar@hittrackeronline.com.
Season:
Ballpark detail for Kauffman Stadium
Ballpark # of Home Runs HR per game Avg.
True
Distance
Avg.
Speed
Off
Bat
Avg.
Std.
Dist.
Kauffman Stadium 68 2.00 410.6 105.5 408.3

Scatter Plot of Home Runs Kauffman Stadium
 Overlay Ballpark:
Without range rings   With range rings

2016 Season Home Runs for Kauffman Stadium
Click headers to sort
Date Video Path Hitter Hitter
Team
 ^
Pitcher Pitcher
Team
INN Ballpark Type/
Luck
True
Dist.
Speed
Off
Bat
Elev.
Angle
Horiz.
Angle
Apex Impact Due To: Std.
Dist.
#
Parks
Wind Temp. Alt.
05/03/16 Video View Rendon, Anthony WSH Young, Chris KC 1 Kauffman Sta... PL 407 108.2 32.6 117.5 120 -7 -1 4 412 30
05/03/16 Video View Murphy, Daniel WSH Young, Chris KC 4 Kauffman Sta... PL 417 107.6 25.9 72.3 82 0 -1 2 417 30
05/03/16 Video View Werth, Jayson WSH Gee, Dillon KC 8 Kauffman Sta... PL 427 104.9 27.0 96.4 97 0 -1 2 427 29
05/04/16 Video View Murphy, Daniel WSH Gee, Dillon KC 4 Kauffman Sta... PL 374 99.5 32.7 64.6 100 -2 1 3 373 29
05/04/16 Video View Harper, Bryce WSH Gee, Dillon KC 5 Kauffman Sta... PL 376 101.8 37.0 63.8 128 4 0 4 367 30
05/31/16 Video View Dickerson, Corey TB Gee, Dillon KC 2 Kauffman Sta... JE 414 102.0 27.9 84.0 95 0 1 2 412 23
06/01/16 Video View Casali, Curt TB Duffy, Danny KC 5 Kauffman Sta... ND 419 107.9 30.1 115.9 100 1 1 3 415 30
04/05/16 Video View Walker, Neil NYM Young, Chris (P) KC 4 Kauffman Sta... PL 390 107.5 26.3 54.0 70 1 0 2 387 30
04/08/16 Video View Park, Byung Ho MIN Soria, Joakim KC 8 Kauffman Sta... PL 441 108.8 30.7 100.2 128 0 -4 4 441 30
04/10/16 Video View Dozier, Brian MIN Hochevar, Luke KC 7 Kauffman Sta... JE 412 102.1 29.8 99.1 105 0 0 2 410 29
04/09/16 Video View Moustakas, Mike KC Milone, Tommy MIN 4 Kauffman Sta... JE 386 105.9 24.9 64.2 66 1 -1 1 386 30
04/09/16 Video View Cain, Lorenzo KC Milone, Tommy MIN 4 Kauffman Sta... ND 447 115.1 27.9 119.2 94 4 -2 2 443 30
04/09/16 Video View Morales, Kendrys KC Fien, Casey MIN 6 Kauffman Sta... JE 421 103.3 29.0 83.3 106 1 -2 2 419 26
04/10/16 Video View Moustakas, Mike KC Nolasco, Ricky MIN 6 Kauffman Sta... PL 423 107.7 24.9 76.7 80 0 0 1 423 29
04/19/16 Video View Perez, Salvador KC Hardy, Blaine DET 5 Kauffman Sta... JE 398 105.7 23.8 105.7 68 0 0 1 398 30
04/20/16 Video View Gordon, Alex KC Rodriguez, Francisco DET 9 Kauffman Sta... JE 409 101.7 28.9 81.2 100 1 -1 2 408 28
04/20/16 Video View Perez, Salvador KC Rodriguez, Francisco DET 9 Kauffman Sta... PL 398 101.3 32.3 104.0 114 1 1 3 396 30
04/21/16 Video View Moustakas, Mike KC Pelfrey, Mike DET 4 Kauffman Sta... JE 426 110.4 19.1 89.1 61 1 0 0 424 25
04/22/16 Video View Moustakas, Mike KC Gallardo, Yovani BAL 1 Kauffman Sta... PL 436 106.6 25.5 86.0 94 -2 -1 1 436 28
04/23/16 Video View Perez, Salvador KC Wilson, Tyler BAL 2 Kauffman Sta... PL 424 105.7 25.4 99.3 82 1 1 1 422 30
04/24/16 Video View Gordon, Alex KC Wright, Mike BAL 4 Kauffman Sta... JE 359 96.0 34.3 120.2 95 5 1 2 351 21
04/24/16 Video View Hosmer, Eric KC Wright, Mike BAL 6 Kauffman Sta... JE 377 105.3 25.6 55.8 65 0 0 1 375 30
05/15/16 Video View Morales, Kendrys KC Grilli, Jason ATL 13 Kauffman Sta... JE 420 102.5 28.2 89.8 101 0 -1 2 419 26
05/17/16 Video View Hosmer, Eric KC Porcello, Rick BOS 3 Kauffman Sta... JE 420 107.6 21.7 84.4 69 0 0 1 420 24
05/17/16 Video View Orlando, Paulo KC Uehara, Koji BOS 8 Kauffman Sta... PL 414 106.9 29.7 112.0 101 0 -3 3 415 30
05/18/16 Video View Hosmer, Eric KC Wright, Steven BOS 1 Kauffman Sta... PL 440 109.8 21.7 87.7 74 0 0 0 440 28
05/18/16 Video View Perez, Salvador KC Price, David BOS 4 Kauffman Sta... PL 429 107.3 22.9 94.4 77 0 -1 0 429 28
05/27/16 Video View Hosmer, Eric KC Gonzalez, Miguel CHW 6 Kauffman Sta... PL 387 100.2 32.5 109.3 107 0 0 3 384 30
05/29/16 Video View Cain, Lorenzo KC Jones, Nate CHW 8 Kauffman Sta... JE 402 102.8 26.4 76.2 80 0 2 2 400 29
05/30/16 Video View Hosmer, Eric KC Ramirez, Erasmo TB 8 Kauffman Sta... PL 436 107.9 26.3 78.3 91 2 -2 0 434 29
05/31/16 Video View Cain, Lorenzo KC Smyly, Drew TB 1 Kauffman Sta... JE 417 102.3 29.1 95.9 104 -1 1 2 414 27
05/31/16 Video View Morales, Kendrys KC Boxberger, Brad TB 6 Kauffman Sta... JE 390 112.8 20.5 67.5 52 0 0 1 390 28
06/13/16 Video View Merrifield, Whit KC Carrasco, Carlos CLE 4 Kauffman Sta... PL 409 105.4 29.4 113.4 93 1 1 2 404 30
06/14/16 Video View Merrifield, Whit KC Tomlin, Josh CLE 3 Kauffman Sta... JE 408 101.3 31.7 99.3 114 -2 4 3 403 26
06/14/16 Video View Perez, Salvador KC Shaw, Bryan CLE 8 Kauffman Sta... PL 425 103.9 28.9 97.9 103 0 2 2 421 30
06/15/16 Video View Perez, Salvador KC Kluber, Corey CLE 5 Kauffman Sta... JE 423 104.7 24.1 88.9 79 0 1 1 422 26
06/16/16 Video View Eibner, Brett KC Verlander, Justin DET 5 Kauffman Sta... JE 423 106.5 22.7 85.4 72 0 0 0 422 24
06/17/16 Video View Perez, Salvador KC Fulmer, Michael DET 6 Kauffman Sta... ND 421 107.3 32.7 114.6 116 3 4 3 410 30
06/17/16 Video View Morales, Kendrys KC Hardy, Blaine DET 8 Kauffman Sta... PL 408 105.1 31.6 116.6 102 3 3 3 400 30
06/24/16 Video View Escobar, Alcides KC Keuchel, Dallas HOU 5 Kauffman Sta... JE 373 107.5 23.6 125.1 57 0 1 1 372 30
06/24/16 Video View Cuthbert, Cheslor KC Keuchel, Dallas HOU 7 Kauffman Sta... PL 370 101.5 28.1 122.8 72 0 1 1 368 30
06/24/16 Video View Springer, George HOU Volquez, Edinson KC 1 Kauffman Sta... PL 399 106.0 24.9 110.4 70 1 1 1 396 30
06/24/16 Video View Rasmus, Colby HOU Flynn, Brian KC 8 Kauffman Sta... PL 415 107.9 24.8 72.5 75 0 1 1 413 30
04/19/16 Video View Saltalamacchia, Jarrod DET Duffy, Danny KC 7 Kauffman Sta... JE 425 106.4 22.6 90.5 76 0 0 0 425 27
06/16/16 Video View Martinez, Victor DET Duffy, Danny KC 2 Kauffman Sta... PL 378 105.8 25.2 123.6 63 0 1 1 375 30
06/16/16 Video View Martinez, Victor DET Duffy, Danny KC 4 Kauffman Sta... PL 426 105.4 30.1 103.6 109 0 3 3 420 30
06/16/16 Video View Castellanos, Nick DET Duffy, Danny KC 4 Kauffman Sta... PL 439 108.6 23.9 96.8 82 0 1 1 437 30
06/16/16 Video View McCann, James DET Hochevar, Luke KC 7 Kauffman Sta... JE 423 104.1 25.3 93.2 85 0 1 1 421 25
06/16/16 Video View Cabrera, Miguel DET Hochevar, Luke KC 7 Kauffman Sta... JE 378 101.5 27.4 64.7 74 0 1 1 376 29
06/16/16 Video View Martinez, Victor DET Wang, Chien-Ming KC 9 Kauffman Sta... PL 424 105.2 29.9 76.4 108 0 2 3 419 30
06/17/16 Video View Cabrera, Miguel DET Gee, Dillon KC 9 Kauffman Sta... JE 417 110.4 21.5 101.9 63 0 1 1 416 30
06/17/16 Video View Upton, Justin DET Gee, Dillon KC 9 Kauffman Sta... PL 434 106.3 27.5 99.5 98 0 2 2 430 30
06/18/16 Video View Upton, Justin DET Volquez, Edinson KC 7 Kauffman Sta... PL 352 96.5 31.0 123.2 79 0 1 2 349 26
06/19/16 Video View Moya, Steven DET Young, Chris KC 3 Kauffman Sta... ND 442 114.6 24.3 70.0 82 -5 2 2 442 30
06/13/16 Video View Kipnis, Jason CLE Herrera, Kelvin KC 8 Kauffman Sta... JE 414 105.4 23.8 81.0 74 0 0 1 413 28
06/14/16 Video View Santana, Carlos CLE Young, Chris (P) KC 3 Kauffman Sta... JE 406 102.4 32.3 79.5 122 -9 5 3 406 29
06/15/16 Video View Davis, Rajai CLE Kennedy, Ian KC 5 Kauffman Sta... PL 409 108.8 23.8 109.1 68 0 1 1 407 30
06/15/16 Video View Martinez, Michael CLE Kennedy, Ian KC 7 Kauffman Sta... JE 416 103.9 25.2 82.5 81 0 1 1 414 27
05/27/16 Video View Cabrera, Melky CHW Duffy, Danny KC 6 Kauffman Sta... ND 410 107.7 28.5 118.3 88 0 0 2 408 30
05/27/16 Video View Frazier, Todd CHW Duffy, Danny KC 6 Kauffman Sta... ND 413 108.8 27.9 119.1 85 0 0 2 411 30
05/28/16 Video View Saladino, Tyler CHW Ventura, Yordano KC 2 Kauffman Sta... JE 381 103.5 25.1 112.7 66 0 0 1 379 27
05/28/16 Video View Garcia, Avisail CHW Ventura, Yordano KC 4 Kauffman Sta... ND 443 115.4 21.8 103.7 68 0 1 1 441 30
05/17/16 Video View Shaw, Travis BOS Ventura, Yordano KC 6 Kauffman Sta... JE 389 101.6 34.5 75.3 128 0 -5 4 389 28
05/18/16 Video View Young, Chris BOS Kennedy, Ian KC 5 Kauffman Sta... PL 412 104.5 29.6 107.5 100 0 -1 2 410 30
05/18/16 Video View Bradley Jr., Jackie BOS Volquez, Edinson KC 2 Kauffman Sta... JE 419 104.9 24.1 95.5 79 0 0 1 418 26
05/18/16 Video View Betts, Mookie BOS Volquez, Edinson KC 3 Kauffman Sta... PL 427 106.8 29.1 105.1 105 0 -1 3 425 30
04/22/16 Video View Machado, Manny BAL Young, Chris KC 6 Kauffman Sta... JE 419 103.5 25.8 94.2 88 0 -1 1 418 25
04/23/16 Video View Davis, Chris BAL Medlen, Kris KC 2 Kauffman Sta... PL 413 103.1 33.8 105.7 122 11 2 4 398 30


About HitTracker | Contact Us
© 2006-2016 HitTrackerOnline